createdAt,value
2022-09-06T00:01:13.362Z,9.68
2022-09-06T00:03:42.767Z,8.50
2022-09-06T00:06:15.079Z,7.32
2022-09-06T00:08:47.699Z,10.43
2022-09-06T00:11:18.413Z,10.05
2022-09-06T00:13:48.331Z,7.88
2022-09-06T00:16:21.146Z,9.25
2022-09-06T00:18:50.059Z,9.35
2022-09-06T00:21:21.675Z,8.37
2022-09-06T00:23:52.590Z,8.18
2022-09-06T00:26:22.286Z,10.38
2022-09-06T00:28:51.315Z,7.60
2022-09-06T00:31:23.696Z,11.27
2022-09-06T00:33:53.589Z,8.80
2022-09-06T00:36:23.520Z,8.63
2022-09-06T00:38:53.688Z,8.43
2022-09-06T00:41:22.546Z,8.43
2022-09-06T00:43:51.566Z,11.90
2022-09-06T00:46:25.051Z,8.43
2022-09-06T00:48:59.954Z,9.90
2022-09-06T00:51:34.133Z,9.48
2022-09-06T00:54:07.873Z,11.05
2022-09-06T00:56:44.031Z,10.32
2022-09-06T00:59:13.022Z,10.43
2022-09-06T01:01:42.319Z,9.73
2022-09-06T01:04:11.961Z,8.98
2022-09-06T01:06:56.337Z,8.38
2022-09-06T01:09:49.095Z,10.02
2022-09-06T01:12:39.205Z,9.90
2022-09-06T01:15:24.498Z,10.05
2022-09-06T01:18:08.907Z,8.38
2022-09-06T01:21:20.153Z,8.43
2022-09-06T01:24:42.383Z,8.65
2022-09-06T01:27:52.875Z,8.60
2022-09-06T01:30:22.709Z,9.63
2022-09-06T01:32:59.537Z,9.18
2022-09-06T01:35:37.233Z,7.70
2022-09-06T01:38:08.332Z,9.70
2022-09-06T01:40:37.950Z,10.77
2022-09-06T01:43:14.909Z,8.77
2022-09-06T01:45:58.499Z,8.50
2022-09-06T01:48:46.275Z,8.30
2022-09-06T01:51:31.903Z,7.22
2022-09-06T01:54:26.084Z,8.53
2022-09-06T01:57:15.456Z,9.02
2022-09-06T02:00:05.379Z,7.50
2022-09-06T02:02:56.463Z,9.63
2022-09-06T02:05:32.143Z,9.23
2022-09-06T02:08:09.467Z,7.90
2022-09-06T02:10:47.985Z,9.68
2022-09-06T02:13:19.327Z,7.97
2022-09-06T02:15:58.158Z,10.57
2022-09-06T02:18:35.464Z,8.50
2022-09-06T02:21:07.903Z,8.67
2022-09-06T02:23:41.598Z,9.05
2022-09-06T02:26:15.866Z,8.63
2022-09-06T02:28:45.144Z,8.50
2022-09-06T02:31:23.053Z,8.60
2022-09-06T02:33:53.839Z,7.97
2022-09-06T02:36:23.037Z,14.48
2022-09-06T02:38:51.875Z,7.68
2022-09-06T02:41:24.295Z,8.80
2022-09-06T02:43:53.597Z,10.02
2022-09-06T02:46:24.520Z,8.60
2022-09-06T02:48:53.697Z,7.63
2022-09-06T02:51:22.485Z,9.07
2022-09-06T02:53:51.275Z,7.30
2022-09-06T02:56:20.146Z,7.72
2022-09-06T02:58:50.080Z,9.70
2022-09-06T03:01:19.126Z,9.65
2022-09-06T03:03:49.380Z,8.73
2022-09-06T03:06:18.246Z,7.43
2022-09-06T03:08:47.084Z,9.27
2022-09-06T03:11:16.022Z,8.10
2022-09-06T03:13:45.018Z,7.78
2022-09-06T03:16:13.884Z,8.20
2022-09-06T03:18:43.662Z,6.88
2022-09-06T03:21:14.684Z,8.20
2022-09-06T03:23:43.459Z,9.03
2022-09-06T03:26:12.253Z,6.85
2022-09-06T03:28:43.332Z,10.00
2022-09-06T03:31:12.788Z,8.90
2022-09-06T03:33:41.661Z,11.32
2022-09-06T03:36:10.687Z,8.73
2022-09-06T03:38:40.955Z,8.73
2022-09-06T03:41:11.111Z,9.73
2022-09-06T03:43:40.106Z,9.10
2022-09-06T03:46:08.939Z,20.77
2022-09-06T03:48:37.994Z,14.37
2022-09-06T03:51:09.927Z,13.48
2022-09-06T03:53:40.589Z,8.40
2022-09-06T03:56:09.849Z,5.75
2022-09-06T03:58:38.920Z,12.38
2022-09-06T04:01:10.748Z,8.53
2022-09-06T04:03:41.567Z,9.07
2022-09-06T04:06:13.714Z,12.55
2022-09-06T04:08:44.619Z,15.80
2022-09-06T04:11:14.153Z,10.25
2022-09-06T04:13:43.095Z,7.80
2022-09-06T04:16:13.537Z,11.48
2022-09-06T04:18:42.473Z,6.95
2022-09-06T04:21:11.828Z,9.70
2022-09-06T04:23:40.856Z,7.28
2022-09-06T04:26:12.368Z,7.73
2022-09-06T04:28:44.297Z,7.28
2022-09-06T04:31:14.095Z,8.30
2022-09-06T04:33:43.094Z,9.90
2022-09-06T04:36:13.810Z,8.25
2022-09-06T04:38:46.075Z,12.07
2022-09-06T04:41:18.841Z,13.82
2022-09-06T04:43:47.867Z,14.15
2022-09-06T04:46:23.168Z,10.50
2022-09-06T04:48:53.313Z,7.38
2022-09-06T04:51:23.425Z,8.00
2022-09-06T04:53:53.440Z,6.20
2022-09-06T04:56:26.939Z,6.20
2022-09-06T04:58:57.237Z,7.45
2022-09-06T05:01:26.714Z,7.07
2022-09-06T05:03:57.161Z,8.83
2022-09-06T05:06:27.689Z,7.10
2022-09-06T05:08:59.616Z,5.72
2022-09-06T05:11:37.990Z,6.50
2022-09-06T05:14:11.975Z,5.32
2022-09-06T05:16:42.163Z,5.07
2022-09-06T05:19:11.039Z,6.03
2022-09-06T05:21:41.194Z,5.90
2022-09-06T05:24:09.996Z,5.35
2022-09-06T05:26:41.934Z,6.80
2022-09-06T05:29:11.121Z,7.70
2022-09-06T05:31:41.110Z,7.32
2022-09-06T05:34:14.253Z,4.80
2022-09-06T05:36:46.313Z,6.72
2022-09-06T05:39:19.687Z,4.50
2022-09-06T05:42:07.909Z,4.23
2022-09-06T05:44:38.156Z,5.30
2022-09-06T05:47:07.932Z,4.80
2022-09-06T05:49:37.491Z,6.10
2022-09-06T05:52:06.677Z,5.60
2022-09-06T05:54:39.010Z,3.80
2022-09-06T05:57:09.404Z,7.32
2022-09-06T05:59:38.985Z,6.18
2022-09-06T06:02:08.243Z,4.53
2022-09-06T06:04:37.595Z,4.55
2022-09-06T06:07:06.655Z,4.23
2022-09-06T06:09:41.024Z,3.85
2022-09-06T06:12:13.223Z,6.00
2022-09-06T06:14:42.711Z,5.07
2022-09-06T06:17:11.836Z,5.00
2022-09-06T06:19:41.849Z,5.43
2022-09-06T06:22:14.334Z,4.78
2022-09-06T06:25:16.167Z,4.55
2022-09-06T06:27:46.803Z,7.13
2022-09-06T06:30:18.435Z,5.00
2022-09-06T06:33:02.655Z,6.50
2022-09-06T06:35:36.073Z,4.68
2022-09-06T06:38:07.594Z,4.10
2022-09-06T06:41:02.042Z,3.78
2022-09-06T06:43:38.188Z,4.50
2022-09-06T06:46:23.423Z,6.47
2022-09-06T06:48:55.167Z,3.75
2022-09-06T06:51:27.137Z,5.68
2022-09-06T06:53:57.336Z,5.47
2022-09-06T06:56:32.993Z,7.82
2022-09-06T06:59:10.531Z,3.57
2022-09-06T07:01:39.967Z,3.58
2022-09-06T07:04:10.761Z,3.35
2022-09-06T07:12:36.300Z,3.73
2022-09-06T07:15:09.616Z,5.88
2022-09-06T07:17:38.459Z,2.55
2022-09-06T07:22:41.629Z,4.05
2022-09-06T07:25:14.403Z,5.17
2022-09-06T07:30:21.581Z,1.60
2022-09-06T07:32:50.692Z,1.38
2022-09-06T07:35:20.581Z,2.03
2022-09-06T07:37:57.880Z,2.30
2022-09-06T07:40:28.971Z,2.10
2022-09-06T07:42:58.792Z,1.45
2022-09-06T07:45:28.965Z,1.90
2022-09-06T07:47:59.793Z,1.90
2022-09-06T07:50:47.721Z,2.20
2022-09-06T07:53:29.067Z,1.85
2022-09-06T07:56:01.183Z,3.20
2022-09-06T07:58:31.232Z,3.80
2022-09-06T08:01:30.070Z,3.65
2022-09-06T08:04:00.932Z,1.93
2022-09-06T08:09:21.535Z,3.05
2022-09-06T08:11:51.229Z,4.95
2022-09-06T08:14:20.498Z,4.53
2022-09-06T08:16:51.328Z,4.43
2022-09-06T08:19:20.172Z,3.85
2022-09-06T08:21:56.849Z,1.80
2022-09-06T08:24:27.601Z,4.85
2022-09-06T08:26:56.473Z,2.65
2022-09-06T08:29:26.363Z,2.03
2022-09-06T08:31:56.958Z,3.42
2022-09-06T08:34:25.912Z,3.85
2022-09-06T08:36:55.185Z,2.03
2022-09-06T08:39:25.168Z,2.78
2022-09-06T08:42:04.987Z,2.40
2022-09-06T08:44:57.266Z,2.95
2022-09-06T08:47:28.231Z,2.22
2022-09-06T08:50:06.847Z,2.08
2022-09-06T08:53:16.066Z,2.97
2022-09-06T08:55:55.477Z,3.00
2022-09-06T08:58:40.919Z,2.50
2022-09-06T09:01:15.648Z,3.38
2022-09-06T09:03:46.939Z,1.00
2022-09-06T09:06:15.818Z,1.83
2022-09-06T09:09:00.114Z,1.90
2022-09-06T09:11:33.460Z,1.10
2022-09-06T09:14:10.037Z,1.90
2022-09-06T09:16:38.936Z,1.85
2022-09-06T09:19:09.525Z,2.65
2022-09-06T09:21:41.220Z,1.20
2022-09-06T09:24:12.363Z,1.10
2022-09-06T09:26:53.384Z,2.75
2022-09-06T09:29:27.539Z,0.80
2022-09-06T09:31:58.253Z,0.88
2022-09-06T09:34:43.901Z,0.90
2022-09-06T09:40:04.996Z,3.30
2022-09-06T09:42:38.576Z,2.33
2022-09-06T09:45:29.717Z,1.13
2022-09-06T09:48:16.807Z,2.87
2022-09-06T09:50:47.667Z,0.93
2022-09-06T09:53:21.018Z,1.13
2022-09-06T09:55:55.885Z,1.20
2022-09-06T09:58:34.784Z,2.83
2022-09-06T10:01:19.602Z,1.80
2022-09-06T10:09:37.652Z,1.50
2022-09-06T10:12:09.293Z,1.63
2022-09-06T10:14:48.807Z,1.03
2022-09-06T10:17:31.022Z,1.65
2022-09-06T10:20:07.528Z,1.30
2022-09-06T10:22:53.733Z,1.95
2022-09-06T10:25:59.771Z,1.55
2022-09-06T10:28:36.532Z,2.13
2022-09-06T10:31:47.560Z,1.02
2022-09-06T10:34:51.534Z,1.20
2022-09-06T10:38:00.781Z,1.75
2022-09-06T10:40:38.920Z,2.47
2022-09-06T10:43:18.626Z,2.50
2022-09-06T10:46:04.997Z,2.00
2022-09-06T10:48:52.274Z,2.60
2022-09-06T10:51:35.395Z,1.17
2022-09-06T10:54:12.407Z,1.88
2022-09-06T10:56:48.069Z,1.33
2022-09-06T10:59:37.654Z,1.58
2022-09-06T11:02:23.522Z,3.57
2022-09-06T11:10:40.424Z,1.63
2022-09-06T11:13:17.253Z,2.33
2022-09-06T11:15:53.918Z,0.50
2022-09-06T11:18:32.500Z,1.77
2022-09-06T11:21:32.278Z,2.25
2022-09-06T11:24:13.399Z,1.02
2022-09-06T11:27:02.121Z,1.63
2022-09-06T11:29:34.295Z,2.27
2022-09-06T11:32:21.590Z,1.25
2022-09-06T11:34:56.686Z,2.03
2022-09-06T11:37:29.515Z,1.58
2022-09-06T11:40:31.150Z,1.17
2022-09-06T11:43:46.795Z,2.23
2022-09-06T11:47:02.068Z,3.15
2022-09-06T11:49:40.084Z,2.00
2022-09-06T11:53:13.069Z,1.58
2022-09-06T11:55:45.508Z,3.33
2022-09-06T11:58:33.689Z,3.27
2022-09-06T12:01:42.106Z,1.27
2022-09-06T12:04:11.915Z,3.67
2022-09-06T12:07:09.663Z,3.53
2022-09-06T12:09:40.268Z,2.85
2022-09-06T12:12:14.855Z,1.80
2022-09-06T12:14:50.057Z,2.30
2022-09-06T12:17:26.774Z,1.88
2022-09-06T12:20:07.295Z,2.63
2022-09-06T12:23:04.579Z,2.88
2022-09-06T12:25:56.651Z,2.90
2022-09-06T12:28:42.525Z,2.58
2022-09-06T12:31:39.584Z,2.17
2022-09-06T12:34:14.599Z,1.35
2022-09-06T12:36:55.733Z,1.10
2022-09-06T12:39:44.262Z,2.57
2022-09-06T12:42:15.238Z,3.60
2022-09-06T12:44:50.802Z,1.90
2022-09-06T12:47:28.457Z,2.35
2022-09-06T12:50:14.505Z,2.72
2022-09-06T12:52:52.744Z,3.30
2022-09-06T12:55:27.752Z,5.40
2022-09-06T12:57:58.588Z,2.47
2022-09-06T13:00:34.870Z,3.65
2022-09-06T13:03:21.686Z,1.55
2022-09-06T13:05:50.684Z,1.83
2022-09-06T13:08:32.886Z,4.18
2022-09-06T13:11:03.152Z,3.28
2022-09-06T13:13:32.290Z,2.08
2022-09-06T13:16:01.270Z,2.25
2022-09-06T13:18:37.615Z,2.97
2022-09-06T13:21:12.129Z,1.42
2022-09-06T13:23:46.917Z,3.30
2022-09-06T13:26:16.365Z,4.00
2022-09-06T13:28:46.550Z,3.03
2022-09-06T13:31:22.954Z,4.07
2022-09-06T13:34:00.024Z,3.05
2022-09-06T13:36:31.539Z,1.60
2022-09-06T13:39:03.695Z,3.33
2022-09-06T13:41:43.051Z,2.22
2022-09-06T13:44:30.536Z,1.97
2022-09-06T13:46:59.455Z,2.28
2022-09-06T13:49:30.167Z,2.17
2022-09-06T13:52:02.619Z,2.60
2022-09-06T13:54:33.267Z,1.65
2022-09-06T13:57:02.862Z,2.13
2022-09-06T13:59:32.297Z,1.52
2022-09-06T14:02:05.135Z,1.05
2022-09-06T14:04:36.302Z,2.28
2022-09-06T14:07:06.545Z,1.17
2022-09-06T14:09:35.342Z,1.63
2022-09-06T14:12:05.315Z,2.45
2022-09-06T14:14:34.816Z,2.40
2022-09-06T14:17:03.758Z,1.77
2022-09-06T14:19:32.795Z,3.55
2022-09-06T14:22:04.981Z,2.27
2022-09-06T14:24:33.770Z,1.40
2022-09-06T14:27:02.446Z,1.67
2022-09-06T14:29:31.352Z,1.42
2022-09-06T14:32:00.402Z,2.17
2022-09-06T14:34:29.797Z,1.33
2022-09-06T14:36:58.477Z,3.47
2022-09-06T14:39:28.815Z,1.38
2022-09-06T14:41:57.686Z,1.38
2022-09-06T14:44:26.413Z,5.57
2022-09-06T14:46:55.211Z,2.70
2022-09-06T14:49:24.831Z,2.10
2022-09-06T14:51:55.746Z,2.50
2022-09-06T14:54:28.634Z,2.40
2022-09-06T14:56:59.681Z,2.67
2022-09-06T14:59:30.700Z,3.20
2022-09-06T15:01:59.688Z,6.72
2022-09-06T15:04:29.734Z,3.55
2022-09-06T15:06:58.849Z,1.75
2022-09-06T15:09:28.037Z,2.90
2022-09-06T15:11:58.529Z,2.60
2022-09-06T15:14:29.503Z,4.03
2022-09-06T15:17:00.620Z,2.70
2022-09-06T15:19:31.336Z,2.55
2022-09-06T15:22:00.105Z,3.88
2022-09-06T15:24:28.954Z,3.13
2022-09-06T15:26:59.366Z,3.88
2022-09-06T15:29:28.577Z,2.30
2022-09-06T15:31:57.626Z,2.00
2022-09-06T15:34:27.872Z,4.45
2022-09-06T15:36:57.210Z,2.03
2022-09-06T15:39:26.226Z,2.13
2022-09-06T15:41:55.193Z,2.70
2022-09-06T15:44:25.425Z,2.22
2022-09-06T15:46:57.697Z,4.57
2022-09-06T15:49:31.366Z,3.00
2022-09-06T15:52:02.681Z,2.97
2022-09-06T15:54:49.402Z,3.78
2022-09-06T15:57:19.004Z,2.25
2022-09-06T15:59:49.218Z,2.83
2022-09-06T16:02:18.283Z,6.23
2022-09-06T16:04:47.497Z,2.40
2022-09-06T16:07:16.418Z,3.03
2022-09-06T16:09:45.463Z,5.93
2022-09-06T16:12:14.431Z,2.97
2022-09-06T16:14:43.257Z,3.53
2022-09-06T16:17:13.341Z,5.63
2022-09-06T16:19:42.858Z,3.67
2022-09-06T16:22:13.138Z,1.90
2022-09-06T16:24:42.152Z,2.45
2022-09-06T16:27:11.029Z,4.40
2022-09-06T16:29:39.798Z,1.85
2022-09-06T16:32:09.979Z,2.90
2022-09-06T16:34:40.644Z,3.15
2022-09-06T16:37:09.330Z,3.40
2022-09-06T16:39:38.218Z,3.53
2022-09-06T16:42:08.375Z,3.40
2022-09-06T16:44:37.814Z,3.00
2022-09-06T16:47:06.807Z,3.38
2022-09-06T16:49:35.570Z,6.97
2022-09-06T16:52:05.868Z,2.43
2022-09-06T16:54:34.695Z,2.70
2022-09-06T16:57:03.519Z,1.60
2022-09-06T16:59:32.279Z,1.20
2022-09-06T17:02:01.203Z,1.88
2022-09-06T17:04:30.187Z,2.00
2022-09-06T17:06:59.159Z,1.85
2022-09-06T17:09:29.382Z,1.88
2022-09-06T17:11:58.781Z,1.98
2022-09-06T17:14:27.871Z,1.10
2022-09-06T17:17:10.046Z,2.63
2022-09-06T17:19:41.364Z,1.92
2022-09-06T17:22:11.702Z,2.42
2022-09-06T17:24:42.895Z,2.72
2022-09-06T17:27:12.018Z,3.03
2022-09-06T17:29:40.976Z,2.50
2022-09-06T17:32:11.342Z,2.58
2022-09-06T17:34:41.638Z,2.25
2022-09-06T17:37:10.829Z,3.60
2022-09-06T17:39:42.295Z,1.95
2022-09-06T17:42:11.762Z,1.97
2022-09-06T17:44:40.783Z,2.97
2022-09-06T17:47:12.896Z,3.53
2022-09-06T17:49:42.920Z,2.28
2022-09-06T17:52:19.183Z,2.08
2022-09-06T17:54:49.845Z,2.13
2022-09-06T17:57:19.209Z,2.85
2022-09-06T17:59:48.445Z,5.18
2022-09-06T18:02:17.949Z,3.72
2022-09-06T18:04:47.564Z,4.30
2022-09-06T18:07:19.320Z,3.47
2022-09-06T18:09:50.488Z,2.70
2022-09-06T18:12:20.326Z,3.70
2022-09-06T18:14:49.586Z,3.83
2022-09-06T18:17:18.960Z,3.40
2022-09-06T18:19:48.446Z,5.63
2022-09-06T18:22:17.932Z,5.05
2022-09-06T18:24:48.901Z,4.90
2022-09-06T18:27:18.371Z,4.93
2022-09-06T18:29:47.683Z,6.30
2022-09-06T18:32:31.139Z,3.70
2022-09-06T18:35:02.897Z,6.97
2022-09-06T18:37:34.691Z,6.28
2022-09-06T18:40:06.426Z,5.68
2022-09-06T18:42:36.654Z,6.10
2022-09-06T18:45:06.674Z,7.43
2022-09-06T18:47:35.970Z,5.35
2022-09-06T18:50:06.992Z,6.30
2022-09-06T18:52:38.601Z,6.28
2022-09-06T18:55:10.271Z,5.60
2022-09-06T18:57:39.653Z,5.60
2022-09-06T19:00:11.348Z,4.18
2022-09-06T19:02:40.657Z,3.65
2022-09-06T19:05:10.584Z,9.88
2022-09-06T19:07:39.930Z,11.57
2022-09-06T19:10:13.877Z,9.00
2022-09-06T19:12:43.546Z,7.00
2022-09-06T19:15:13.448Z,6.47
2022-09-06T19:17:45.396Z,8.52
2022-09-06T19:20:17.719Z,4.13
2022-09-06T19:22:47.533Z,3.57
2022-09-06T19:25:18.569Z,6.43
2022-09-06T19:27:48.905Z,3.65
2022-09-06T19:30:20.036Z,3.42
2022-09-06T19:32:49.443Z,4.88
2022-09-06T19:35:19.759Z,7.57
2022-09-06T19:37:49.331Z,4.82
2022-09-06T19:40:19.799Z,5.70
2022-09-06T19:42:49.079Z,5.07
2022-09-06T19:45:18.020Z,3.83
2022-09-06T19:47:47.210Z,4.63
2022-09-06T19:50:16.263Z,3.30
2022-09-06T19:52:45.813Z,4.75
2022-09-06T19:55:14.910Z,3.85
2022-09-06T19:57:45.176Z,4.22
2022-09-06T20:00:16.580Z,3.63
2022-09-06T20:02:45.729Z,4.95
2022-09-06T20:05:14.886Z,4.43
2022-09-06T20:07:43.783Z,3.45
2022-09-06T20:10:13.542Z,3.75
2022-09-06T20:12:44.304Z,4.40
2022-09-06T20:15:13.529Z,4.00
2022-09-06T20:17:42.401Z,3.30
2022-09-06T20:20:12.333Z,2.92
2022-09-06T20:22:41.132Z,4.43
2022-09-06T20:25:11.999Z,3.97
2022-09-06T20:27:44.435Z,4.43
2022-09-06T20:30:15.343Z,4.25
2022-09-06T20:32:44.148Z,4.43
2022-09-06T20:35:12.991Z,3.28
2022-09-06T20:37:41.789Z,3.50
2022-09-06T20:40:13.123Z,4.13
2022-09-06T20:42:42.443Z,3.95
2022-09-06T20:45:12.093Z,3.30
2022-09-06T20:47:42.514Z,2.70
2022-09-06T20:50:11.970Z,3.57
2022-09-06T20:52:40.853Z,2.80
2022-09-06T20:55:10.938Z,4.10
2022-09-06T20:57:39.759Z,3.70
2022-09-06T21:00:14.264Z,4.88
2022-09-06T21:02:44.714Z,5.10
2022-09-06T21:05:13.474Z,4.82
2022-09-06T21:07:42.206Z,3.22
2022-09-06T21:10:11.663Z,3.53
2022-09-06T21:12:40.431Z,5.28
2022-09-06T21:15:09.878Z,3.13
2022-09-06T21:17:38.994Z,3.70
2022-09-06T21:20:10.959Z,3.22
2022-09-06T21:22:39.820Z,3.40
2022-09-06T21:25:09.639Z,3.25
2022-09-06T21:27:39.421Z,3.50
2022-09-06T21:30:10.065Z,2.67
2022-09-06T21:32:38.857Z,2.95
2022-09-06T21:35:10.269Z,4.25
2022-09-06T21:37:39.193Z,3.10
2022-09-06T21:40:09.791Z,4.00
2022-09-06T21:42:38.542Z,4.82
2022-09-06T21:45:08.451Z,3.90
2022-09-06T21:47:38.330Z,3.80
2022-09-06T21:50:09.559Z,4.50
2022-09-06T21:52:39.415Z,4.07
2022-09-06T21:55:13.480Z,3.95
2022-09-06T21:57:44.131Z,3.00
2022-09-06T22:00:15.692Z,3.47
2022-09-06T22:02:44.672Z,3.85
2022-09-06T22:05:15.169Z,3.20
2022-09-06T22:07:44.018Z,5.13
2022-09-06T22:10:12.788Z,3.75
2022-09-06T22:12:43.369Z,3.90
2022-09-06T22:15:12.474Z,4.30
2022-09-06T22:17:41.334Z,3.57
2022-09-06T22:20:12.037Z,3.65
2022-09-06T22:22:44.070Z,4.75
2022-09-06T22:25:13.072Z,3.08
2022-09-06T22:27:42.692Z,3.95
2022-09-06T22:30:13.024Z,4.57
2022-09-06T22:32:42.348Z,4.22
2022-09-06T22:35:11.756Z,5.78
2022-09-06T22:37:41.887Z,4.70
2022-09-06T22:40:12.287Z,9.50
2022-09-06T22:42:41.150Z,7.87
2022-09-06T22:45:11.195Z,6.10
2022-09-06T22:47:40.075Z,7.20
2022-09-06T22:50:11.696Z,7.43
2022-09-06T22:52:42.102Z,4.88
2022-09-06T22:55:12.569Z,5.43
2022-09-06T22:57:41.336Z,4.90
2022-09-06T23:00:11.985Z,5.18
2022-09-06T23:02:40.793Z,4.18
2022-09-06T23:05:10.534Z,4.70
2022-09-06T23:07:39.511Z,4.50
2022-09-06T23:10:12.157Z,5.25
2022-09-06T23:12:41.131Z,9.05
2022-09-06T23:15:11.106Z,5.97
2022-09-06T23:17:39.949Z,5.70
2022-09-06T23:20:09.922Z,4.60
2022-09-06T23:22:38.806Z,6.75
2022-09-06T23:25:10.635Z,5.97
2022-09-06T23:27:39.394Z,4.80
2022-09-06T23:30:11.138Z,6.70
2022-09-06T23:32:40.505Z,4.03
2022-09-06T23:35:10.355Z,4.70
2022-09-06T23:37:39.121Z,4.35
2022-09-06T23:40:11.081Z,8.10
2022-09-06T23:42:39.896Z,10.45
2022-09-06T23:45:09.845Z,16.23
2022-09-06T23:47:38.618Z,12.30
2022-09-06T23:50:09.050Z,10.60
2022-09-06T23:52:38.055Z,22.80
2022-09-06T23:55:09.444Z,13.13
2022-09-06T23:57:40.606Z,9.20
